sensor_id;sensor_type;location;lat;lon;timestamp;temperature;humidity
58309;DHT22;44117;57.142;24.826;2022-10-17T00:02:25;12.10;99.90
58309;DHT22;44117;57.142;24.826;2022-10-17T00:04:53;12.00;99.90
58309;DHT22;44117;57.142;24.826;2022-10-17T00:07:20;12.00;99.90
58309;DHT22;44117;57.142;24.826;2022-10-17T00:09:47;12.00;99.90
58309;DHT22;44117;57.142;24.826;2022-10-17T00:12:14;11.90;99.90
58309;DHT22;44117;57.142;24.826;2022-10-17T00:14:42;11.90;99.90
58309;DHT22;44117;57.142;24.826;2022-10-17T00:17:09;11.90;99.90
58309;DHT22;44117;57.142;24.826;2022-10-17T00:19:36;11.90;99.90
58309;DHT22;44117;57.142;24.826;2022-10-17T00:22:04;11.80;99.90
58309;DHT22;44117;57.142;24.826;2022-10-17T00:24:31;11.80;99.90
58309;DHT22;44117;57.142;24.826;2022-10-17T00:26:58;11.70;99.90
58309;DHT22;44117;57.142;24.826;2022-10-17T00:29:25;11.70;99.90
58309;DHT22;44117;57.142;24.826;2022-10-17T00:31:56;11.70;99.90
58309;DHT22;44117;57.142;24.826;2022-10-17T00:34:24;11.70;99.90
58309;DHT22;44117;57.142;24.826;2022-10-17T00:36:51;11.70;99.90
58309;DHT22;44117;57.142;24.826;2022-10-17T00:39:19;11.70;99.90
58309;DHT22;44117;57.142;24.826;2022-10-17T00:41:46;11.60;99.90
58309;DHT22;44117;57.142;24.826;2022-10-17T00:46:58;11.60;99.90
58309;DHT22;44117;57.142;24.826;2022-10-17T00:49:30;11.60;99.90
58309;DHT22;44117;57.142;24.826;2022-10-17T00:52:02;11.50;99.90
58309;DHT22;44117;57.142;24.826;2022-10-17T00:54:34;11.50;99.90
58309;DHT22;44117;57.142;24.826;2022-10-17T00:57:03;11.40;99.90
58309;DHT22;44117;57.142;24.826;2022-10-17T00:59:32;11.30;99.90
58309;DHT22;44117;57.142;24.826;2022-10-17T01:02:09;11.30;99.90
58309;DHT22;44117;57.142;24.826;2022-10-17T01:04:39;11.30;99.90
58309;DHT22;44117;57.142;24.826;2022-10-17T01:07:07;11.30;99.90
58309;DHT22;44117;57.142;24.826;2022-10-17T01:09:35;11.30;99.90
58309;DHT22;44117;57.142;24.826;2022-10-17T01:17:42;11.10;99.90
58309;DHT22;44117;57.142;24.826;2022-10-17T01:29:13;11.00;99.90
58309;DHT22;44117;57.142;24.826;2022-10-17T01:34:41;10.90;99.90
58309;DHT22;44117;57.142;24.826;2022-10-17T01:39:51;10.90;99.90
58309;DHT22;44117;57.142;24.826;2022-10-17T01:42:27;10.90;99.90
58309;DHT22;44117;57.142;24.826;2022-10-17T01:45:05;10.80;99.90
58309;DHT22;44117;57.142;24.826;2022-10-17T01:47:36;10.80;99.90
58309;DHT22;44117;57.142;24.826;2022-10-17T01:50:12;10.80;99.90
58309;DHT22;44117;57.142;24.826;2022-10-17T01:52:45;10.80;99.90
58309;DHT22;44117;57.142;24.826;2022-10-17T01:55:23;10.70;99.90
58309;DHT22;44117;57.142;24.826;2022-10-17T01:57:58;10.70;99.90
58309;DHT22;44117;57.142;24.826;2022-10-17T02:00:27;10.60;99.90
58309;DHT22;44117;57.142;24.826;2022-10-17T02:02:59;10.60;99.90
58309;DHT22;44117;57.142;24.826;2022-10-17T02:05:31;10.60;99.90
58309;DHT22;44117;57.142;24.826;2022-10-17T02:07:59;10.50;99.90
58309;DHT22;44117;57.142;24.826;2022-10-17T02:10:32;10.50;99.90
58309;DHT22;44117;57.142;24.826;2022-10-17T02:13:37;10.40;99.90
58309;DHT22;44117;57.142;24.826;2022-10-17T02:21:44;10.40;99.90
58309;DHT22;44117;57.142;24.826;2022-10-17T02:24:46;10.30;99.90
58309;DHT22;44117;57.142;24.826;2022-10-17T02:27:38;10.40;99.90
58309;DHT22;44117;57.142;24.826;2022-10-17T02:30:40;10.40;99.90
58309;DHT22;44117;57.142;24.826;2022-10-17T02:33:24;10.30;99.90
58309;DHT22;44117;57.142;24.826;2022-10-17T02:35:55;10.30;99.90
58309;DHT22;44117;57.142;24.826;2022-10-17T02:38:24;10.30;99.90
58309;DHT22;44117;57.142;24.826;2022-10-17T02:40:53;10.20;99.90
58309;DHT22;44117;57.142;24.826;2022-10-17T02:43:21;10.10;99.90
58309;DHT22;44117;57.142;24.826;2022-10-17T02:45:49;10.20;99.90
58309;DHT22;44117;57.142;24.826;2022-10-17T02:48:40;10.20;99.90
58309;DHT22;44117;57.142;24.826;2022-10-17T02:56:24;10.30;99.90
58309;DHT22;44117;57.142;24.826;2022-10-17T02:58:57;10.30;99.90
58309;DHT22;44117;57.142;24.826;2022-10-17T03:01:26;10.30;99.90
58309;DHT22;44117;57.142;24.826;2022-10-17T03:04:13;10.30;99.90
58309;DHT22;44117;57.142;24.826;2022-10-17T03:06:41;10.40;99.90
58309;DHT22;44117;57.142;24.826;2022-10-17T03:09:08;10.40;99.90
58309;DHT22;44117;57.142;24.826;2022-10-17T03:11:35;10.40;99.90
58309;DHT22;44117;57.142;24.826;2022-10-17T03:14:03;10.40;99.90
58309;DHT22;44117;57.142;24.826;2022-10-17T03:16:30;10.40;99.90
58309;DHT22;44117;57.142;24.826;2022-10-17T03:18:58;10.40;99.90
58309;DHT22;44117;57.142;24.826;2022-10-17T03:21:25;10.40;99.90
58309;DHT22;44117;57.142;24.826;2022-10-17T03:23:52;10.40;99.90
58309;DHT22;44117;57.142;24.826;2022-10-17T03:26:20;10.40;99.90
58309;DHT22;44117;57.142;24.826;2022-10-17T03:28:47;10.30;99.90
58309;DHT22;44117;57.142;24.826;2022-10-17T03:31:20;10.30;99.90
58309;DHT22;44117;57.142;24.826;2022-10-17T03:33:47;10.30;99.90
58309;DHT22;44117;57.142;24.826;2022-10-17T03:36:17;10.20;99.90
58309;DHT22;44117;57.142;24.826;2022-10-17T03:38:45;10.30;99.90
58309;DHT22;44117;57.142;24.826;2022-10-17T03:41:12;10.30;99.90
58309;DHT22;44117;57.142;24.826;2022-10-17T03:43:39;10.30;99.90
58309;DHT22;44117;57.142;24.826;2022-10-17T03:46:06;10.30;99.90
58309;DHT22;44117;57.142;24.826;2022-10-17T03:48:34;10.30;99.90
58309;DHT22;44117;57.142;24.826;2022-10-17T03:51:05;10.30;99.90
58309;DHT22;44117;57.142;24.826;2022-10-17T03:53:32;10.30;99.90
58309;DHT22;44117;57.142;24.826;2022-10-17T03:56:29;10.30;99.90
58309;DHT22;44117;57.142;24.826;2022-10-17T03:58:56;10.30;99.90
58309;DHT22;44117;57.142;24.826;2022-10-17T04:01:23;10.30;99.90
58309;DHT22;44117;57.142;24.826;2022-10-17T04:03:52;10.30;99.90
58309;DHT22;44117;57.142;24.826;2022-10-17T04:06:20;10.30;99.90
58309;DHT22;44117;57.142;24.826;2022-10-17T04:08:47;10.30;99.90
58309;DHT22;44117;57.142;24.826;2022-10-17T04:11:18;10.30;99.90
58309;DHT22;44117;57.142;24.826;2022-10-17T04:13:46;10.30;99.90
58309;DHT22;44117;57.142;24.826;2022-10-17T04:16:15;10.30;99.90
58309;DHT22;44117;57.142;24.826;2022-10-17T04:18:43;10.30;99.90
58309;DHT22;44117;57.142;24.826;2022-10-17T04:21:11;10.30;99.90
58309;DHT22;44117;57.142;24.826;2022-10-17T04:23:38;10.40;99.90
58309;DHT22;44117;57.142;24.826;2022-10-17T04:26:06;10.30;99.90
58309;DHT22;44117;57.142;24.826;2022-10-17T04:28:33;10.20;99.90
58309;DHT22;44117;57.142;24.826;2022-10-17T04:31:06;10.20;99.90
58309;DHT22;44117;57.142;24.826;2022-10-17T04:33:33;10.20;99.90
58309;DHT22;44117;57.142;24.826;2022-10-17T04:36:03;10.30;99.90
58309;DHT22;44117;57.142;24.826;2022-10-17T04:38:31;10.30;99.90
58309;DHT22;44117;57.142;24.826;2022-10-17T04:40:59;10.30;99.90
58309;DHT22;44117;57.142;24.826;2022-10-17T04:43:30;10.30;99.90
58309;DHT22;44117;57.142;24.826;2022-10-17T04:45:59;10.30;99.90
58309;DHT22;44117;57.142;24.826;2022-10-17T04:48:28;10.30;99.90
58309;DHT22;44117;57.142;24.826;2022-10-17T04:50:57;10.30;99.90
58309;DHT22;44117;57.142;24.826;2022-10-17T04:53:25;10.20;99.90
58309;DHT22;44117;57.142;24.826;2022-10-17T04:55:53;10.10;99.90
58309;DHT22;44117;57.142;24.826;2022-10-17T04:58:20;10.10;99.90
58309;DHT22;44117;57.142;24.826;2022-10-17T05:00:48;10.10;99.90
58309;DHT22;44117;57.142;24.826;2022-10-17T05:03:15;10.10;99.90
58309;DHT22;44117;57.142;24.826;2022-10-17T05:05:42;10.10;99.90
58309;DHT22;44117;57.142;24.826;2022-10-17T05:08:10;10.00;99.90
58309;DHT22;44117;57.142;24.826;2022-10-17T05:10:43;10.00;99.90
58309;DHT22;44117;57.142;24.826;2022-10-17T05:13:11;10.00;99.90
58309;DHT22;44117;57.142;24.826;2022-10-17T05:15:38;10.00;99.90
58309;DHT22;44117;57.142;24.826;2022-10-17T05:18:06;10.00;99.90
58309;DHT22;44117;57.142;24.826;2022-10-17T05:20:33;9.90;99.90
58309;DHT22;44117;57.142;24.826;2022-10-17T05:23:01;9.90;99.90
58309;DHT22;44117;57.142;24.826;2022-10-17T05:25:28;9.90;99.90
58309;DHT22;44117;57.142;24.826;2022-10-17T05:27:55;9.90;99.90
58309;DHT22;44117;57.142;24.826;2022-10-17T05:30:22;9.90;99.90
58309;DHT22;44117;57.142;24.826;2022-10-17T05:32:53;9.90;99.90
58309;DHT22;44117;57.142;24.826;2022-10-17T05:35:21;10.00;99.90
58309;DHT22;44117;57.142;24.826;2022-10-17T05:37:48;9.90;99.90
58309;DHT22;44117;57.142;24.826;2022-10-17T05:40:16;10.00;99.90
58309;DHT22;44117;57.142;24.826;2022-10-17T05:42:47;10.00;99.90
58309;DHT22;44117;57.142;24.826;2022-10-17T05:45:15;10.00;99.90
58309;DHT22;44117;57.142;24.826;2022-10-17T05:47:42;10.00;99.90
58309;DHT22;44117;57.142;24.826;2022-10-17T05:50:10;10.00;99.90
58309;DHT22;44117;57.142;24.826;2022-10-17T05:52:38;10.00;99.90
58309;DHT22;44117;57.142;24.826;2022-10-17T05:55:07;10.00;99.90
58309;DHT22;44117;57.142;24.826;2022-10-17T05:57:35;10.00;99.90
58309;DHT22;44117;57.142;24.826;2022-10-17T06:00:03;10.10;99.90
58309;DHT22;44117;57.142;24.826;2022-10-17T06:02:31;10.20;99.90
58309;DHT22;44117;57.142;24.826;2022-10-17T06:04:59;10.20;99.90
58309;DHT22;44117;57.142;24.826;2022-10-17T06:07:26;10.20;99.90
58309;DHT22;44117;57.142;24.826;2022-10-17T06:09:53;10.20;99.90
58309;DHT22;44117;57.142;24.826;2022-10-17T06:12:20;10.20;99.90
58309;DHT22;44117;57.142;24.826;2022-10-17T06:14:48;10.20;99.90
58309;DHT22;44117;57.142;24.826;2022-10-17T06:17:15;10.30;99.90
58309;DHT22;44117;57.142;24.826;2022-10-17T06:19:43;10.30;99.90
58309;DHT22;44117;57.142;24.826;2022-10-17T06:22:11;10.30;99.90
58309;DHT22;44117;57.142;24.826;2022-10-17T06:24:38;10.40;99.90
58309;DHT22;44117;57.142;24.826;2022-10-17T06:27:05;10.50;99.90
58309;DHT22;44117;57.142;24.826;2022-10-17T06:29:38;10.60;99.90
58309;DHT22;44117;57.142;24.826;2022-10-17T06:32:05;10.60;99.90
58309;DHT22;44117;57.142;24.826;2022-10-17T06:34:38;10.60;99.90
58309;DHT22;44117;57.142;24.826;2022-10-17T06:37:05;10.60;99.90
58309;DHT22;44117;57.142;24.826;2022-10-17T06:39:34;10.60;99.90
58309;DHT22;44117;57.142;24.826;2022-10-17T06:42:02;10.60;99.90
58309;DHT22;44117;57.142;24.826;2022-10-17T06:44:30;10.70;99.90
58309;DHT22;44117;57.142;24.826;2022-10-17T06:46:58;10.70;99.90
58309;DHT22;44117;57.142;24.826;2022-10-17T06:49:27;10.80;99.90
58309;DHT22;44117;57.142;24.826;2022-10-17T06:51:54;10.90;99.90
58309;DHT22;44117;57.142;24.826;2022-10-17T06:54:21;10.90;99.90
58309;DHT22;44117;57.142;24.826;2022-10-17T06:56:48;11.00;99.90
58309;DHT22;44117;57.142;24.826;2022-10-17T06:59:16;11.00;99.90
58309;DHT22;44117;57.142;24.826;2022-10-17T07:01:43;11.00;99.90
58309;DHT22;44117;57.142;24.826;2022-10-17T07:04:13;11.00;99.90
58309;DHT22;44117;57.142;24.826;2022-10-17T07:06:41;11.00;99.90
58309;DHT22;44117;57.142;24.826;2022-10-17T07:09:08;11.10;99.90
58309;DHT22;44117;57.142;24.826;2022-10-17T07:11:35;11.20;99.90
58309;DHT22;44117;57.142;24.826;2022-10-17T07:14:03;11.10;99.90
58309;DHT22;44117;57.142;24.826;2022-10-17T07:16:30;11.20;99.90
58309;DHT22;44117;57.142;24.826;2022-10-17T07:18:57;11.30;99.90
58309;DHT22;44117;57.142;24.826;2022-10-17T07:21:25;11.40;99.90
58309;DHT22;44117;57.142;24.826;2022-10-17T07:23:52;11.40;99.90
58309;DHT22;44117;57.142;24.826;2022-10-17T07:26:19;11.40;99.90
58309;DHT22;44117;57.142;24.826;2022-10-17T07:28:51;11.50;99.90
58309;DHT22;44117;57.142;24.826;2022-10-17T07:31:19;11.40;99.90
58309;DHT22;44117;57.142;24.826;2022-10-17T07:33:47;11.50;99.90
58309;DHT22;44117;57.142;24.826;2022-10-17T07:36:15;11.50;99.90
58309;DHT22;44117;57.142;24.826;2022-10-17T07:38:43;11.60;99.90
58309;DHT22;44117;57.142;24.826;2022-10-17T07:41:11;11.50;99.90
58309;DHT22;44117;57.142;24.826;2022-10-17T07:43:46;11.50;99.90
58309;DHT22;44117;57.142;24.826;2022-10-17T07:46:14;11.70;99.90
58309;DHT22;44117;57.142;24.826;2022-10-17T07:48:41;11.70;99.90
58309;DHT22;44117;57.142;24.826;2022-10-17T07:51:09;11.80;99.90
58309;DHT22;44117;57.142;24.826;2022-10-17T07:53:37;11.80;99.90
58309;DHT22;44117;57.142;24.826;2022-10-17T07:56:08;11.80;99.90
58309;DHT22;44117;57.142;24.826;2022-10-17T07:58:36;11.80;99.90
58309;DHT22;44117;57.142;24.826;2022-10-17T08:01:09;11.90;99.90
58309;DHT22;44117;57.142;24.826;2022-10-17T08:03:45;11.90;99.90
58309;DHT22;44117;57.142;24.826;2022-10-17T08:06:14;11.90;99.90
58309;DHT22;44117;57.142;24.826;2022-10-17T08:08:42;11.90;99.90
58309;DHT22;44117;57.142;24.826;2022-10-17T08:11:12;12.00;99.90
58309;DHT22;44117;57.142;24.826;2022-10-17T08:13:40;12.00;99.90
58309;DHT22;44117;57.142;24.826;2022-10-17T08:16:09;12.10;99.90
58309;DHT22;44117;57.142;24.826;2022-10-17T08:18:39;12.20;99.90
58309;DHT22;44117;57.142;24.826;2022-10-17T08:21:08;12.30;99.90
58309;DHT22;44117;57.142;24.826;2022-10-17T08:23:35;12.40;99.90
58309;DHT22;44117;57.142;24.826;2022-10-17T08:26:05;12.50;99.90
58309;DHT22;44117;57.142;24.826;2022-10-17T08:28:34;12.40;99.90
58309;DHT22;44117;57.142;24.826;2022-10-17T08:31:04;12.40;99.90
58309;DHT22;44117;57.142;24.826;2022-10-17T08:33:32;12.40;99.90
58309;DHT22;44117;57.142;24.826;2022-10-17T08:36:00;12.70;99.90
58309;DHT22;44117;57.142;24.826;2022-10-17T08:38:28;12.90;99.90
58309;DHT22;44117;57.142;24.826;2022-10-17T08:41:12;13.00;99.90
58309;DHT22;44117;57.142;24.826;2022-10-17T08:46:40;12.80;99.90
58309;DHT22;44117;57.142;24.826;2022-10-17T08:49:30;12.70;99.90
58309;DHT22;44117;57.142;24.826;2022-10-17T08:52:10;13.00;99.90
58309;DHT22;44117;57.142;24.826;2022-10-17T08:54:43;13.20;99.90
58309;DHT22;44117;57.142;24.826;2022-10-17T08:57:13;13.50;99.90
58309;DHT22;44117;57.142;24.826;2022-10-17T08:59:42;13.60;99.90
58309;DHT22;44117;57.142;24.826;2022-10-17T09:03:13;13.60;99.90
58309;DHT22;44117;57.142;24.826;2022-10-17T09:10:59;13.20;99.90
58309;DHT22;44117;57.142;24.826;2022-10-17T09:13:45;13.60;99.90
58309;DHT22;44117;57.142;24.826;2022-10-17T09:19:22;14.10;99.90
58309;DHT22;44117;57.142;24.826;2022-10-17T09:22:03;13.80;99.90
58309;DHT22;44117;57.142;24.826;2022-10-17T09:24:41;14.30;99.90
58309;DHT22;44117;57.142;24.826;2022-10-17T09:27:37;14.70;99.90
58309;DHT22;44117;57.142;24.826;2022-10-17T09:33:13;15.10;99.50
58309;DHT22;44117;57.142;24.826;2022-10-17T09:36:08;14.20;99.80
58309;DHT22;44117;57.142;24.826;2022-10-17T09:38:42;14.40;99.90
58309;DHT22;44117;57.142;24.826;2022-10-17T09:41:22;14.80;99.60
58309;DHT22;44117;57.142;24.826;2022-10-17T09:44:22;15.20;99.00
58309;DHT22;44117;57.142;24.826;2022-10-17T09:49:37;14.70;99.00
58309;DHT22;44117;57.142;24.826;2022-10-17T09:52:20;14.60;99.00
58309;DHT22;44117;57.142;24.826;2022-10-17T09:54:51;14.60;99.20
58309;DHT22;44117;57.142;24.826;2022-10-17T09:57:20;15.50;98.70
58309;DHT22;44117;57.142;24.826;2022-10-17T10:00:12;15.30;97.90
58309;DHT22;44117;57.142;24.826;2022-10-17T10:02:45;15.20;98.80
58309;DHT22;44117;57.142;24.826;2022-10-17T10:05:19;16.20;97.80
58309;DHT22;44117;57.142;24.826;2022-10-17T10:08:09;16.60;96.90
58309;DHT22;44117;57.142;24.826;2022-10-17T10:10:38;17.50;95.60
58309;DHT22;44117;57.142;24.826;2022-10-17T10:15:47;16.90;95.10
58309;DHT22;44117;57.142;24.826;2022-10-17T10:23:39;16.40;95.50
58309;DHT22;44117;57.142;24.826;2022-10-17T10:28:59;16.80;94.60
58309;DHT22;44117;57.142;24.826;2022-10-17T10:31:38;16.50;94.40
58309;DHT22;44117;57.142;24.826;2022-10-17T10:34:27;16.00;95.30
58309;DHT22;44117;57.142;24.826;2022-10-17T10:37:01;16.10;94.90
58309;DHT22;44117;57.142;24.826;2022-10-17T10:39:34;15.90;96.10
58309;DHT22;44117;57.142;24.826;2022-10-17T10:42:06;16.50;94.80
58309;DHT22;44117;57.142;24.826;2022-10-17T10:44:36;17.20;94.00
58309;DHT22;44117;57.142;24.826;2022-10-17T10:47:16;16.60;94.00
58309;DHT22;44117;57.142;24.826;2022-10-17T10:49:44;16.80;93.70
58309;DHT22;44117;57.142;24.826;2022-10-17T10:52:40;16.90;93.70
58309;DHT22;44117;57.142;24.826;2022-10-17T10:55:46;18.60;91.80
58309;DHT22;44117;57.142;24.826;2022-10-17T11:01:06;18.90;90.00
58309;DHT22;44117;57.142;24.826;2022-10-17T11:03:40;19.10;89.30
58309;DHT22;44117;57.142;24.826;2022-10-17T11:06:20;18.50;90.00
58309;DHT22;44117;57.142;24.826;2022-10-17T11:11:41;17.90;90.90
58309;DHT22;44117;57.142;24.826;2022-10-17T11:14:33;16.40;91.70
58309;DHT22;44117;57.142;24.826;2022-10-17T11:19:48;15.80;94.00
58309;DHT22;44117;57.142;24.826;2022-10-17T11:24:57;18.90;91.40
58309;DHT22;44117;57.142;24.826;2022-10-17T11:27:28;20.30;87.40
58309;DHT22;44117;57.142;24.826;2022-10-17T11:29:56;20.40;85.60
58309;DHT22;44117;57.142;24.826;2022-10-17T11:32:35;20.60;84.40
58309;DHT22;44117;57.142;24.826;2022-10-17T11:37:39;20.20;85.20
58309;DHT22;44117;57.142;24.826;2022-10-17T11:40:18;19.20;85.70
58309;DHT22;44117;57.142;24.826;2022-10-17T11:43:01;19.20;86.10
58309;DHT22;44117;57.142;24.826;2022-10-17T11:45:34;19.10;86.60
58309;DHT22;44117;57.142;24.826;2022-10-17T11:48:12;19.00;85.60
58309;DHT22;44117;57.142;24.826;2022-10-17T11:50:45;18.80;87.10
58309;DHT22;44117;57.142;24.826;2022-10-17T11:56:10;18.90;85.90
58309;DHT22;44117;57.142;24.826;2022-10-17T11:58:40;19.40;85.30
58309;DHT22;44117;57.142;24.826;2022-10-17T12:01:47;19.10;85.20
58309;DHT22;44117;57.142;24.826;2022-10-17T12:12:53;19.10;84.60
58309;DHT22;44117;57.142;24.826;2022-10-17T12:18:02;19.80;82.50
58309;DHT22;44117;57.142;24.826;2022-10-17T12:20:32;20.50;81.00
58309;DHT22;44117;57.142;24.826;2022-10-17T12:25:51;21.40;78.70
58309;DHT22;44117;57.142;24.826;2022-10-17T12:28:32;21.40;78.40
58309;DHT22;44117;57.142;24.826;2022-10-17T12:38:49;20.50;79.20
58309;DHT22;44117;57.142;24.826;2022-10-17T12:46:49;20.20;80.40
58309;DHT22;44117;57.142;24.826;2022-10-17T12:57:43;20.80;76.90
58309;DHT22;44117;57.142;24.826;2022-10-17T13:00:25;20.20;77.20
58309;DHT22;44117;57.142;24.826;2022-10-17T13:02:56;20.00;78.00
58309;DHT22;44117;57.142;24.826;2022-10-17T13:05:29;19.50;78.20
58309;DHT22;44117;57.142;24.826;2022-10-17T13:07:59;18.80;79.60
58309;DHT22;44117;57.142;24.826;2022-10-17T13:10:30;19.40;79.40
58309;DHT22;44117;57.142;24.826;2022-10-17T13:13:19;19.30;78.30
58309;DHT22;44117;57.142;24.826;2022-10-17T13:15:52;19.50;78.10
58309;DHT22;44117;57.142;24.826;2022-10-17T13:18:26;18.70;79.60
58309;DHT22;44117;57.142;24.826;2022-10-17T13:21:01;18.90;79.60
58309;DHT22;44117;57.142;24.826;2022-10-17T13:23:31;19.10;79.20
58309;DHT22;44117;57.142;24.826;2022-10-17T13:26:19;19.50;78.60
58309;DHT22;44117;57.142;24.826;2022-10-17T13:29:08;20.10;77.40
58309;DHT22;44117;57.142;24.826;2022-10-17T13:31:43;20.40;75.70
58309;DHT22;44117;57.142;24.826;2022-10-17T13:34:19;20.20;75.90
58309;DHT22;44117;57.142;24.826;2022-10-17T13:36:49;19.50;76.80
58309;DHT22;44117;57.142;24.826;2022-10-17T13:39:18;19.80;77.40
58309;DHT22;44117;57.142;24.826;2022-10-17T13:42:23;20.90;77.30
58309;DHT22;44117;57.142;24.826;2022-10-17T13:44:51;21.00;73.80
58309;DHT22;44117;57.142;24.826;2022-10-17T13:47:29;20.70;74.70
58309;DHT22;44117;57.142;24.826;2022-10-17T13:49:58;20.40;75.40
58309;DHT22;44117;57.142;24.826;2022-10-17T13:52:28;20.50;76.50
58309;DHT22;44117;57.142;24.826;2022-10-17T13:55:07;20.50;75.70
58309;DHT22;44117;57.142;24.826;2022-10-17T13:57:43;19.70;75.40
58309;DHT22;44117;57.142;24.826;2022-10-17T14:00:18;19.30;76.60
58309;DHT22;44117;57.142;24.826;2022-10-17T14:02:46;18.40;78.80
58309;DHT22;44117;57.142;24.826;2022-10-17T14:05:19;18.60;79.60
58309;DHT22;44117;57.142;24.826;2022-10-17T14:07:52;18.40;79.60
58309;DHT22;44117;57.142;24.826;2022-10-17T14:10:39;18.10;80.20
58309;DHT22;44117;57.142;24.826;2022-10-17T14:13:16;17.20;82.10
58309;DHT22;44117;57.142;24.826;2022-10-17T14:15:45;16.30;84.50
58309;DHT22;44117;57.142;24.826;2022-10-17T14:18:32;15.80;87.00
58309;DHT22;44117;57.142;24.826;2022-10-17T14:21:03;15.90;87.70
58309;DHT22;44117;57.142;24.826;2022-10-17T14:24:10;15.90;87.10
58309;DHT22;44117;57.142;24.826;2022-10-17T14:26:46;15.90;87.80
58309;DHT22;44117;57.142;24.826;2022-10-17T14:31:58;15.50;89.10
58309;DHT22;44117;57.142;24.826;2022-10-17T14:34:34;15.20;90.20
58309;DHT22;44117;57.142;24.826;2022-10-17T14:37:24;15.00;90.60
58309;DHT22;44117;57.142;24.826;2022-10-17T14:39:55;14.80;91.00
58309;DHT22;44117;57.142;24.826;2022-10-17T14:42:25;14.60;91.70
58309;DHT22;44117;57.142;24.826;2022-10-17T14:45:02;14.50;92.00
58309;DHT22;44117;57.142;24.826;2022-10-17T14:47:31;14.40;92.30
58309;DHT22;44117;57.142;24.826;2022-10-17T14:55:29;14.00;93.60
58309;DHT22;44117;57.142;24.826;2022-10-17T14:57:56;13.90;94.10
58309;DHT22;44117;57.142;24.826;2022-10-17T15:00:23;13.70;94.40
58309;DHT22;44117;57.142;24.826;2022-10-17T15:02:53;13.50;94.70
58309;DHT22;44117;57.142;24.826;2022-10-17T15:05:20;13.40;95.00
58309;DHT22;44117;57.142;24.826;2022-10-17T15:07:49;13.30;95.20
58309;DHT22;44117;57.142;24.826;2022-10-17T15:10:43;13.20;95.50
58309;DHT22;44117;57.142;24.826;2022-10-17T15:13:11;13.20;95.60
58309;DHT22;44117;57.142;24.826;2022-10-17T15:15:57;13.10;95.90
58309;DHT22;44117;57.142;24.826;2022-10-17T15:18:25;13.00;96.00
58309;DHT22;44117;57.142;24.826;2022-10-17T15:20:52;13.00;96.30
58309;DHT22;44117;57.142;24.826;2022-10-17T15:23:32;12.90;96.70
58309;DHT22;44117;57.142;24.826;2022-10-17T15:26:00;12.90;97.00
58309;DHT22;44117;57.142;24.826;2022-10-17T15:28:27;12.70;97.30
58309;DHT22;44117;57.142;24.826;2022-10-17T15:30:54;12.50;97.70
58309;DHT22;44117;57.142;24.826;2022-10-17T15:33:22;12.50;98.00
58309;DHT22;44117;57.142;24.826;2022-10-17T15:35:49;12.60;97.90
58309;DHT22;44117;57.142;24.826;2022-10-17T15:38:17;12.50;97.90
58309;DHT22;44117;57.142;24.826;2022-10-17T15:40:44;12.50;98.10
58309;DHT22;44117;57.142;24.826;2022-10-17T15:43:14;12.40;98.30
58309;DHT22;44117;57.142;24.826;2022-10-17T15:45:46;12.40;98.60
58309;DHT22;44117;57.142;24.826;2022-10-17T15:48:28;12.30;98.70
58309;DHT22;44117;57.142;24.826;2022-10-17T15:50:55;12.20;98.80
58309;DHT22;44117;57.142;24.826;2022-10-17T15:53:24;12.00;99.00
58309;DHT22;44117;57.142;24.826;2022-10-17T15:55:52;12.00;99.50
58309;DHT22;44117;57.142;24.826;2022-10-17T15:58:20;11.90;99.20
58309;DHT22;44117;57.142;24.826;2022-10-17T16:00:47;12.00;99.10
58309;DHT22;44117;57.142;24.826;2022-10-17T16:03:14;11.90;99.20
58309;DHT22;44117;57.142;24.826;2022-10-17T16:05:41;11.90;99.20
58309;DHT22;44117;57.142;24.826;2022-10-17T16:08:09;11.90;99.20
58309;DHT22;44117;57.142;24.826;2022-10-17T16:10:38;11.80;99.50
58309;DHT22;44117;57.142;24.826;2022-10-17T16:13:05;11.70;99.60
58309;DHT22;44117;57.142;24.826;2022-10-17T16:15:32;11.70;99.70
58309;DHT22;44117;57.142;24.826;2022-10-17T16:17:59;11.70;99.80
58309;DHT22;44117;57.142;24.826;2022-10-17T16:20:32;11.70;99.90
58309;DHT22;44117;57.142;24.826;2022-10-17T16:22:59;11.60;99.90
58309;DHT22;44117;57.142;24.826;2022-10-17T16:25:30;11.60;99.90
58309;DHT22;44117;57.142;24.826;2022-10-17T16:27:59;11.60;99.90
58309;DHT22;44117;57.142;24.826;2022-10-17T16:30:28;11.60;99.90
58309;DHT22;44117;57.142;24.826;2022-10-17T16:32:56;11.70;99.90
58309;DHT22;44117;57.142;24.826;2022-10-17T16:35:28;11.70;99.90
58309;DHT22;44117;57.142;24.826;2022-10-17T16:38:02;11.70;99.90
58309;DHT22;44117;57.142;24.826;2022-10-17T16:40:30;11.80;99.90
58309;DHT22;44117;57.142;24.826;2022-10-17T16:42:57;11.80;99.90
58309;DHT22;44117;57.142;24.826;2022-10-17T16:45:24;11.90;99.90
58309;DHT22;44117;57.142;24.826;2022-10-17T16:47:52;11.80;99.90
58309;DHT22;44117;57.142;24.826;2022-10-17T16:50:19;11.90;99.90
58309;DHT22;44117;57.142;24.826;2022-10-17T16:52:46;11.80;99.90
58309;DHT22;44117;57.142;24.826;2022-10-17T16:55:13;11.90;99.90
58309;DHT22;44117;57.142;24.826;2022-10-17T16:57:44;11.90;99.90
58309;DHT22;44117;57.142;24.826;2022-10-17T17:00:15;11.80;99.90
58309;DHT22;44117;57.142;24.826;2022-10-17T17:02:46;11.80;99.90
58309;DHT22;44117;57.142;24.826;2022-10-17T17:05:13;11.80;99.90
58309;DHT22;44117;57.142;24.826;2022-10-17T17:07:41;11.80;99.90
58309;DHT22;44117;57.142;24.826;2022-10-17T17:10:08;11.70;99.90
58309;DHT22;44117;57.142;24.826;2022-10-17T17:12:36;11.80;99.90
58309;DHT22;44117;57.142;24.826;2022-10-17T17:15:03;11.70;99.90
58309;DHT22;44117;57.142;24.826;2022-10-17T17:17:31;11.80;99.90
58309;DHT22;44117;57.142;24.826;2022-10-17T17:20:16;11.70;99.90
58309;DHT22;44117;57.142;24.826;2022-10-17T17:22:43;11.70;99.90
58309;DHT22;44117;57.142;24.826;2022-10-17T17:25:10;11.70;99.90
58309;DHT22;44117;57.142;24.826;2022-10-17T17:27:37;11.70;99.90
58309;DHT22;44117;57.142;24.826;2022-10-17T17:30:04;11.60;99.90
58309;DHT22;44117;57.142;24.826;2022-10-17T17:32:32;11.60;99.90
58309;DHT22;44117;57.142;24.826;2022-10-17T17:34:59;11.60;99.90
58309;DHT22;44117;57.142;24.826;2022-10-17T17:37:26;11.60;99.90
58309;DHT22;44117;57.142;24.826;2022-10-17T17:39:54;11.50;99.90
58309;DHT22;44117;57.142;24.826;2022-10-17T17:42:21;11.50;99.90
58309;DHT22;44117;57.142;24.826;2022-10-17T17:44:49;11.50;99.90
58309;DHT22;44117;57.142;24.826;2022-10-17T17:47:16;11.50;99.90
58309;DHT22;44117;57.142;24.826;2022-10-17T17:49:43;11.40;99.90